Aeroporto :
LOGIN :

Iscrizione | Disclaimer

   EN    FR    IT 

 










Sommario :    VFR   VFR Marginale   IFR   IFR Intensivo   IFR Molto Intensivo
Visibilità : 
Base nubi : 
>= 8 km
>= 3000ft
5 / 8 km
1000 / 3000 ft
1500m / 5 km
500 / 1000 ft
800 / 1500m
200 / 500 ft
< 800m
< 200 ft
Simboli :   Temporali  Nebbia  Neve Forte  Precipitazioni Forti  Vento > 20 kt
SIGMETs :   Varie  Temporali  Ghiacco  Turbolenza  Onda orograficha  Ceneri Vulcaniche






- Altitudine del aeroporto : 87 ft
- Codice IATA : BEY


OLBA - Rafic Hariri Int.

ULTIMO METAR :
  • 040900Z 34010KT 5000 HZ NSC 21/13 Q1018 NOSIG

METARs OBSOLETI :
  • 040800Z 34006KT 6000 NSC 20/12 Q1019 NOSIG
  • 040700Z 04004KT 360V110 CAVOK 19/11 Q1019 NOSIG

TAF TAF OLBA
Valido dal 04 a 06 ore il 05 a 12 ore UTC


040400Z 0406/0512 05010KT 8000 FEW180
BECMG 0412/0415 02018G28KT 7000 BKN180
TEMPO 0412/0506 5000 DU
BECMG 0506/0509 12020G30KT 5000 DU SCT080 SCT200



MetMap, La meteo Aeronautica in un colpo d'occhio ! - Copyright ORBIFLY Dicembre 2007 - Disclaimer

ORBIFLY MET'MAP TEAM :

Programmazione e sviluppo : Alexandra Zaïnal
Concezione : Baudouin d'Aumeries
Aiuto per la programmazione : Marc-Olivier Méhu
Supporto tecnico e logistico : Manuel Goepfert
Aiuto per la traduzione : Arnaldo La Scala

Contatto : metmap@orbifly.com




FONTI E CREDITI :

   NOAA